Flight Track Log - Related Links

Times and Time Zones

All times are in EDT time to prevent confusion due to time zone crossing. See the N479SA flight status page for this flight to view local times or setup timezone preferences in your user account.

Time Position Orientation Groundspeed Altitude Reporting Facility
EDT Latitude Longitude Course Direction KTS MPH feet Rate Location/Type
Mon 07:26:00 PM 45.6456 -87.0239 145° Southeast 127 146 4,000  Level Minneapolis Center
Mon 07:27:02 PM 45.6086 -86.9947 151° Southeast 138 159 5,100 1,220 Climbing Minneapolis Center
Mon 07:28:03 PM 45.5653 -86.9519 145° Southeast 150 173 6,500 1,220 Climbing Minneapolis Center
Mon 07:29:05 PM 45.5267 -86.9161 147° Southeast 158 182 7,600 1,113 Climbing Minneapolis Center
Mon 07:30:07 PM 45.4861 -86.8811 149° Southeast 165 190 8,800 1,065 Climbing Minneapolis Center
Mon 07:31:00 PM 45.4218 -86.8234 145° Southeast  Level Estimated
Mon 07:31:09 PM 45.4442 -86.8439 148° Southeast 171 197 9,800  Level Minneapolis Center
Mon 07:32:11 PM 45.4031 -86.8025 145° Southeast 178 205 11,000 1,073 Climbing Minneapolis Center
Mon 07:33:12 PM 45.3581 -86.7639 149° Southeast 186 214 12,000 976 Climbing Minneapolis Center
Mon 07:34:14 PM 45.3147 -86.7256 148° Southeast 185 213 13,000 1,065 Climbing Minneapolis Center
Mon 07:35:16 PM 45.2600 -86.6783 149° Southeast 191 220 14,200 968 Climbing Minneapolis Center
Mon 07:36:18 PM 45.2136 -86.6372 148° Southeast 196 226 15,000 732 Climbing Minneapolis Center
Mon 07:37:19 PM 45.1667 -86.5944 147° Southeast 205 236 15,700 585 Climbing Minneapolis Center
Mon 07:38:21 PM 45.1192 -86.5542 149° Southeast 202 232 16,200 484 Climbing Minneapolis Center
Mon 07:39:23 PM 45.0706 -86.5097 147° Southeast 208 239 16,700 488 Climbing Minneapolis Center
Mon 07:40:24 PM 45.0206 -86.4661 148° Southeast 212 244 17,200 488 Climbing Minneapolis Center
Mon 07:41:26 PM 44.9700 -86.4217 148° Southeast 215 247 17,700 387 Climbing Minneapolis Center
Mon 07:42:28 PM 44.9089 -86.3681 148° Southeast 218 251 18,000 390 Climbing Minneapolis Center
Mon 07:43:29 PM 44.8556 -86.3225 149° Southeast 224 258 18,500 488 Climbing Minneapolis Center
Mon 07:44:31 PM 44.8017 -86.2731 147° Southeast 230 265 19,000 242 Climbing Minneapolis Center
Mon 07:45:33 PM 44.7464 -86.2261 149° Southeast 230 265 19,000  Level Minneapolis Center
Mon 07:46:34 PM 44.6850 -86.1764 150° Southeast 245 282 19,000  Level Minneapolis Center
Mon 07:47:36 PM 44.6158 -86.1136 147° Southeast 255 293 19,000  Level Minneapolis Center
Mon 07:48:38 PM 44.5528 -86.0597 149° Southeast 264 304 19,000  Level Minneapolis Center
Mon 07:49:39 PM 44.4897 -86.0058 149° Southeast 267 307 19,000  Level Minneapolis Center
Mon 07:50:41 PM 44.4269 -85.9511 148° Southeast 266 306 19,000  Level Minneapolis Center
Mon 07:51:43 PM 44.3633 -85.8964 148° Southeast 270 311 19,000  Level Minneapolis Center
Mon 07:52:44 PM 44.2994 -85.8431 149° Southeast 269 310 19,000  Level Minneapolis Center
Mon 07:53:46 PM 44.2231 -85.7778 149° Southeast 268 308 19,000  Level Minneapolis Center
Mon 07:54:48 PM 44.1597 -85.7225 148° Southeast 269 310 19,000  Level Minneapolis Center
Mon 07:55:49 PM 44.0961 -85.6683 149° Southeast 269 310 19,000  Level Minneapolis Center
Mon 07:56:51 PM 44.0400 -85.6219 149° Southeast 268 308 19,000  Level Minneapolis Center
Mon 07:57:53 PM 43.9631 -85.5592 150° Southeast 268 308 19,000  Level Minneapolis Center
Mon 07:58:55 PM 43.8994 -85.5039 148° Southeast 269 310 19,000 -49 Level Minneapolis Center
Mon 07:59:56 PM 43.8342 -85.4503 149° Southeast 271 312 18,900 -585 Descending Minneapolis Center
Mon 08:00:58 PM 43.7650 -85.3950 150° Southeast 280 322 17,800 -1,016 Descending Minneapolis Center
Mon 08:02:00 PM 43.6933 -85.3319 148° Southeast 298 343 16,800 -780 Descending Minneapolis Center
Mon 08:03:01 PM 43.6256 -85.2736 148° Southeast 293 337 16,200 -732 Descending Minneapolis Center
Mon 08:04:03 PM 43.5581 -85.2206 150° Southeast 283 326 15,300 -1,016 Descending Minneapolis Center
Mon 08:05:05 PM 43.4775 -85.1536 149° Southeast 282 325 14,100 -1,072 Descending Minneapolis Center
Mon 08:07:30 PM 43.3169 -85.0183 148° Southeast 279 321 11,600 -1,034 Descending Chicago Center

Login

Don't have an account? Register now (free) for customized features, flight alerts, and more!